sensor_id;sensor_type;location;lat;lon;timestamp;P1;durP1;ratioP1;P2;durP2;ratioP2
809;SDS011;387;48.772;9.186;2023-10-13T00:01:58;10.90;;;4.70;;
809;SDS011;387;48.772;9.186;2023-10-13T00:04:26;9.00;;;5.20;;
809;SDS011;387;48.772;9.186;2023-10-13T00:06:52;10.33;;;4.90;;
809;SDS011;387;48.772;9.186;2023-10-13T00:09:19;10.37;;;5.03;;
809;SDS011;387;48.772;9.186;2023-10-13T00:11:49;13.37;;;5.63;;
809;SDS011;387;48.772;9.186;2023-10-13T00:14:17;9.30;;;4.43;;
809;SDS011;387;48.772;9.186;2023-10-13T00:16:43;11.33;;;5.33;;
809;SDS011;387;48.772;9.186;2023-10-13T00:19:31;7.03;;;4.60;;
809;SDS011;387;48.772;9.186;2023-10-13T00:22:09;8.40;;;4.53;;
809;SDS011;387;48.772;9.186;2023-10-13T00:24:38;8.57;;;4.80;;
809;SDS011;387;48.772;9.186;2023-10-13T00:27:14;10.77;;;4.50;;
809;SDS011;387;48.772;9.186;2023-10-13T00:29:59;12.57;;;5.30;;
809;SDS011;387;48.772;9.186;2023-10-13T00:32:45;10.83;;;5.20;;
809;SDS011;387;48.772;9.186;2023-10-13T00:35:17;9.00;;;4.57;;
809;SDS011;387;48.772;9.186;2023-10-13T00:37:57;10.30;;;4.90;;
809;SDS011;387;48.772;9.186;2023-10-13T00:40:37;9.90;;;4.63;;
809;SDS011;387;48.772;9.186;2023-10-13T00:43:04;9.40;;;4.00;;
809;SDS011;387;48.772;9.186;2023-10-13T00:48:24;11.07;;;4.53;;
809;SDS011;387;48.772;9.186;2023-10-13T00:50:58;9.03;;;4.77;;
809;SDS011;387;48.772;9.186;2023-10-13T00:53:28;12.63;;;4.90;;
809;SDS011;387;48.772;9.186;2023-10-13T00:55:58;10.43;;;5.30;;
809;SDS011;387;48.772;9.186;2023-10-13T00:58:32;9.07;;;4.90;;
809;SDS011;387;48.772;9.186;2023-10-13T01:01:03;10.73;;;5.50;;
809;SDS011;387;48.772;9.186;2023-10-13T01:03:44;13.43;;;4.97;;
809;SDS011;387;48.772;9.186;2023-10-13T01:06:13;10.33;;;4.23;;
809;SDS011;387;48.772;9.186;2023-10-13T01:08:41;8.63;;;4.80;;
809;SDS011;387;48.772;9.186;2023-10-13T01:11:09;7.50;;;4.50;;
809;SDS011;387;48.772;9.186;2023-10-13T01:13:35;10.20;;;4.60;;
809;SDS011;387;48.772;9.186;2023-10-13T01:16:01;7.90;;;4.43;;
809;SDS011;387;48.772;9.186;2023-10-13T01:18:28;10.40;;;4.80;;
809;SDS011;387;48.772;9.186;2023-10-13T01:20:54;10.27;;;4.50;;
809;SDS011;387;48.772;9.186;2023-10-13T01:23:27;14.30;;;6.23;;
809;SDS011;387;48.772;9.186;2023-10-13T01:25:54;13.87;;;5.97;;
809;SDS011;387;48.772;9.186;2023-10-13T01:28:21;9.57;;;4.60;;
809;SDS011;387;48.772;9.186;2023-10-13T01:30:49;8.80;;;4.27;;
809;SDS011;387;48.772;9.186;2023-10-13T01:33:18;8.30;;;4.90;;
809;SDS011;387;48.772;9.186;2023-10-13T01:35:54;7.60;;;4.50;;
809;SDS011;387;48.772;9.186;2023-10-13T01:38:23;8.23;;;4.73;;
809;SDS011;387;48.772;9.186;2023-10-13T01:40:53;10.90;;;4.77;;
809;SDS011;387;48.772;9.186;2023-10-13T01:43:21;15.83;;;5.10;;
809;SDS011;387;48.772;9.186;2023-10-13T01:45:48;10.30;;;4.60;;
809;SDS011;387;48.772;9.186;2023-10-13T01:48:14;10.20;;;5.00;;
809;SDS011;387;48.772;9.186;2023-10-13T01:50:42;8.00;;;4.30;;
809;SDS011;387;48.772;9.186;2023-10-13T01:53:12;10.70;;;5.43;;
809;SDS011;387;48.772;9.186;2023-10-13T01:55:39;12.20;;;4.70;;
809;SDS011;387;48.772;9.186;2023-10-13T01:58:08;11.10;;;5.17;;
809;SDS011;387;48.772;9.186;2023-10-13T02:00:39;14.60;;;5.03;;
809;SDS011;387;48.772;9.186;2023-10-13T02:03:09;12.03;;;4.70;;
809;SDS011;387;48.772;9.186;2023-10-13T02:05:42;12.20;;;4.83;;
809;SDS011;387;48.772;9.186;2023-10-13T02:08:21;8.90;;;4.73;;
809;SDS011;387;48.772;9.186;2023-10-13T02:10:53;12.33;;;4.73;;
809;SDS011;387;48.772;9.186;2023-10-13T02:13:21;12.47;;;5.00;;
809;SDS011;387;48.772;9.186;2023-10-13T02:15:49;11.07;;;5.10;;
809;SDS011;387;48.772;9.186;2023-10-13T02:18:18;10.43;;;5.00;;
809;SDS011;387;48.772;9.186;2023-10-13T02:21:06;13.87;;;5.43;;
809;SDS011;387;48.772;9.186;2023-10-13T02:23:38;11.03;;;4.63;;
809;SDS011;387;48.772;9.186;2023-10-13T02:26:08;9.63;;;5.43;;
809;SDS011;387;48.772;9.186;2023-10-13T02:28:46;8.00;;;4.33;;
809;SDS011;387;48.772;9.186;2023-10-13T02:31:17;10.10;;;5.00;;
809;SDS011;387;48.772;9.186;2023-10-13T02:33:44;14.57;;;5.37;;
809;SDS011;387;48.772;9.186;2023-10-13T02:36:10;8.33;;;4.73;;
809;SDS011;387;48.772;9.186;2023-10-13T02:38:44;10.23;;;4.77;;
809;SDS011;387;48.772;9.186;2023-10-13T02:41:13;7.43;;;4.10;;
809;SDS011;387;48.772;9.186;2023-10-13T02:43:53;11.13;;;5.20;;
809;SDS011;387;48.772;9.186;2023-10-13T02:46:19;14.00;;;5.00;;
809;SDS011;387;48.772;9.186;2023-10-13T02:48:49;10.30;;;4.73;;
809;SDS011;387;48.772;9.186;2023-10-13T02:51:18;10.00;;;5.27;;
809;SDS011;387;48.772;9.186;2023-10-13T02:53:50;9.97;;;4.40;;
809;SDS011;387;48.772;9.186;2023-10-13T02:56:17;9.10;;;4.77;;
809;SDS011;387;48.772;9.186;2023-10-13T02:58:50;10.77;;;5.50;;
809;SDS011;387;48.772;9.186;2023-10-13T03:01:21;10.60;;;4.63;;
809;SDS011;387;48.772;9.186;2023-10-13T03:03:52;13.77;;;5.60;;
809;SDS011;387;48.772;9.186;2023-10-13T03:06:23;10.50;;;4.87;;
809;SDS011;387;48.772;9.186;2023-10-13T03:08:57;8.30;;;4.80;;
809;SDS011;387;48.772;9.186;2023-10-13T03:11:38;9.23;;;5.17;;
809;SDS011;387;48.772;9.186;2023-10-13T03:14:07;14.00;;;5.40;;
809;SDS011;387;48.772;9.186;2023-10-13T03:16:40;13.80;;;5.40;;
809;SDS011;387;48.772;9.186;2023-10-13T03:19:06;16.37;;;4.97;;
809;SDS011;387;48.772;9.186;2023-10-13T03:21:34;9.77;;;4.93;;
809;SDS011;387;48.772;9.186;2023-10-13T03:24:01;9.73;;;4.80;;
809;SDS011;387;48.772;9.186;2023-10-13T03:26:32;9.70;;;4.83;;
809;SDS011;387;48.772;9.186;2023-10-13T03:29:03;10.37;;;4.83;;
809;SDS011;387;48.772;9.186;2023-10-13T03:31:33;12.33;;;5.23;;
809;SDS011;387;48.772;9.186;2023-10-13T03:34:02;10.10;;;4.80;;
809;SDS011;387;48.772;9.186;2023-10-13T03:36:29;12.63;;;4.70;;
809;SDS011;387;48.772;9.186;2023-10-13T03:39:13;9.83;;;5.33;;
809;SDS011;387;48.772;9.186;2023-10-13T03:41:39;8.67;;;4.70;;
809;SDS011;387;48.772;9.186;2023-10-13T03:44:05;10.23;;;4.60;;
809;SDS011;387;48.772;9.186;2023-10-13T03:46:39;12.07;;;5.77;;
809;SDS011;387;48.772;9.186;2023-10-13T03:49:07;10.33;;;4.80;;
809;SDS011;387;48.772;9.186;2023-10-13T03:51:38;8.03;;;4.93;;
809;SDS011;387;48.772;9.186;2023-10-13T03:54:05;9.53;;;5.37;;
809;SDS011;387;48.772;9.186;2023-10-13T03:56:34;11.67;;;4.80;;
809;SDS011;387;48.772;9.186;2023-10-13T03:59:03;8.50;;;4.33;;
809;SDS011;387;48.772;9.186;2023-10-13T04:01:34;10.03;;;5.23;;
809;SDS011;387;48.772;9.186;2023-10-13T04:04:08;12.73;;;5.53;;
809;SDS011;387;48.772;9.186;2023-10-13T04:06:37;10.80;;;5.80;;
809;SDS011;387;48.772;9.186;2023-10-13T04:14:26;12.43;;;5.17;;
809;SDS011;387;48.772;9.186;2023-10-13T04:17:12;7.60;;;4.97;;
809;SDS011;387;48.772;9.186;2023-10-13T04:19:43;10.50;;;5.40;;
809;SDS011;387;48.772;9.186;2023-10-13T04:22:27;9.33;;;4.83;;
809;SDS011;387;48.772;9.186;2023-10-13T04:25:24;9.17;;;4.50;;
809;SDS011;387;48.772;9.186;2023-10-13T04:28:06;9.97;;;4.73;;
809;SDS011;387;48.772;9.186;2023-10-13T04:30:36;10.33;;;4.87;;
809;SDS011;387;48.772;9.186;2023-10-13T04:33:17;13.27;;;6.23;;
809;SDS011;387;48.772;9.186;2023-10-13T04:36:09;9.87;;;5.10;;
809;SDS011;387;48.772;9.186;2023-10-13T04:38:48;10.80;;;5.20;;
809;SDS011;387;48.772;9.186;2023-10-13T04:41:23;12.03;;;5.43;;
809;SDS011;387;48.772;9.186;2023-10-13T04:44:01;12.77;;;5.63;;
809;SDS011;387;48.772;9.186;2023-10-13T04:46:30;11.13;;;5.03;;
809;SDS011;387;48.772;9.186;2023-10-13T04:49:22;12.17;;;5.03;;
809;SDS011;387;48.772;9.186;2023-10-13T04:51:54;14.00;;;5.57;;
809;SDS011;387;48.772;9.186;2023-10-13T04:54:27;11.97;;;5.40;;
809;SDS011;387;48.772;9.186;2023-10-13T04:57:11;9.60;;;5.10;;
809;SDS011;387;48.772;9.186;2023-10-13T04:59:55;10.37;;;5.30;;
809;SDS011;387;48.772;9.186;2023-10-13T05:02:37;11.20;;;5.37;;
809;SDS011;387;48.772;9.186;2023-10-13T05:07:46;12.40;;;5.23;;
809;SDS011;387;48.772;9.186;2023-10-13T05:10:31;9.03;;;5.23;;
809;SDS011;387;48.772;9.186;2023-10-13T05:13:17;12.43;;;5.10;;
809;SDS011;387;48.772;9.186;2023-10-13T05:16:01;8.53;;;4.40;;
809;SDS011;387;48.772;9.186;2023-10-13T05:18:45;10.23;;;5.30;;
809;SDS011;387;48.772;9.186;2023-10-13T05:21:29;12.87;;;5.40;;
809;SDS011;387;48.772;9.186;2023-10-13T05:24:13;11.27;;;5.70;;
809;SDS011;387;48.772;9.186;2023-10-13T05:26:58;10.50;;;4.80;;
809;SDS011;387;48.772;9.186;2023-10-13T05:29:44;7.37;;;4.60;;
809;SDS011;387;48.772;9.186;2023-10-13T05:32:29;9.97;;;5.03;;
809;SDS011;387;48.772;9.186;2023-10-13T05:35:14;17.00;;;5.60;;
809;SDS011;387;48.772;9.186;2023-10-13T05:37:59;9.33;;;4.83;;
809;SDS011;387;48.772;9.186;2023-10-13T05:41:01;9.90;;;4.77;;
809;SDS011;387;48.772;9.186;2023-10-13T05:43:47;12.87;;;5.00;;
809;SDS011;387;48.772;9.186;2023-10-13T05:46:31;9.30;;;5.17;;
809;SDS011;387;48.772;9.186;2023-10-13T05:49:06;13.97;;;6.17;;
809;SDS011;387;48.772;9.186;2023-10-13T05:51:42;10.07;;;5.37;;
809;SDS011;387;48.772;9.186;2023-10-13T05:54:31;11.93;;;5.33;;
809;SDS011;387;48.772;9.186;2023-10-13T05:57:15;15.20;;;5.73;;
809;SDS011;387;48.772;9.186;2023-10-13T05:59:59;9.07;;;4.93;;
809;SDS011;387;48.772;9.186;2023-10-13T06:02:44;18.10;;;5.90;;
809;SDS011;387;48.772;9.186;2023-10-13T06:05:28;10.90;;;5.53;;
809;SDS011;387;48.772;9.186;2023-10-13T06:08:12;10.83;;;4.97;;
809;SDS011;387;48.772;9.186;2023-10-13T06:11:02;11.43;;;5.77;;
809;SDS011;387;48.772;9.186;2023-10-13T06:13:47;11.70;;;5.43;;
809;SDS011;387;48.772;9.186;2023-10-13T06:16:31;9.97;;;5.50;;
809;SDS011;387;48.772;9.186;2023-10-13T06:19:16;12.23;;;5.10;;
809;SDS011;387;48.772;9.186;2023-10-13T06:22:00;10.00;;;5.00;;
809;SDS011;387;48.772;9.186;2023-10-13T06:24:44;17.53;;;5.77;;
809;SDS011;387;48.772;9.186;2023-10-13T06:27:28;13.97;;;7.37;;
809;SDS011;387;48.772;9.186;2023-10-13T06:30:12;9.93;;;5.57;;
809;SDS011;387;48.772;9.186;2023-10-13T06:32:38;13.00;;;5.53;;
809;SDS011;387;48.772;9.186;2023-10-13T06:35:06;16.47;;;5.97;;
809;SDS011;387;48.772;9.186;2023-10-13T06:37:43;13.43;;;4.83;;
809;SDS011;387;48.772;9.186;2023-10-13T06:40:09;13.20;;;5.43;;
809;SDS011;387;48.772;9.186;2023-10-13T06:42:51;18.30;;;6.47;;
809;SDS011;387;48.772;9.186;2023-10-13T06:45:18;12.50;;;5.70;;
809;SDS011;387;48.772;9.186;2023-10-13T06:47:45;13.53;;;5.93;;
809;SDS011;387;48.772;9.186;2023-10-13T06:50:12;14.70;;;5.77;;
809;SDS011;387;48.772;9.186;2023-10-13T06:52:41;11.50;;;5.20;;
809;SDS011;387;48.772;9.186;2023-10-13T06:55:08;12.30;;;6.40;;
809;SDS011;387;48.772;9.186;2023-10-13T06:57:48;31.77;;;5.87;;
809;SDS011;387;48.772;9.186;2023-10-13T07:00:16;11.90;;;5.70;;
809;SDS011;387;48.772;9.186;2023-10-13T07:02:52;13.17;;;5.40;;
809;SDS011;387;48.772;9.186;2023-10-13T07:05:18;15.80;;;5.83;;
809;SDS011;387;48.772;9.186;2023-10-13T07:07:44;13.20;;;5.67;;
809;SDS011;387;48.772;9.186;2023-10-13T07:10:11;10.00;;;5.70;;
809;SDS011;387;48.772;9.186;2023-10-13T07:12:40;12.13;;;5.60;;
809;SDS011;387;48.772;9.186;2023-10-13T07:15:09;13.27;;;5.50;;
809;SDS011;387;48.772;9.186;2023-10-13T07:17:47;12.40;;;4.50;;
809;SDS011;387;48.772;9.186;2023-10-13T07:20:19;13.90;;;5.53;;
809;SDS011;387;48.772;9.186;2023-10-13T07:22:58;12.67;;;4.40;;
809;SDS011;387;48.772;9.186;2023-10-13T07:25:30;12.13;;;5.40;;
809;SDS011;387;48.772;9.186;2023-10-13T07:28:12;11.17;;;5.50;;
809;SDS011;387;48.772;9.186;2023-10-13T07:30:40;10.27;;;4.80;;
809;SDS011;387;48.772;9.186;2023-10-13T07:33:34;10.70;;;4.67;;
809;SDS011;387;48.772;9.186;2023-10-13T07:36:03;9.23;;;4.67;;
809;SDS011;387;48.772;9.186;2023-10-13T07:38:48;11.83;;;4.87;;
809;SDS011;387;48.772;9.186;2023-10-13T07:44:19;11.90;;;4.47;;
809;SDS011;387;48.772;9.186;2023-10-13T07:46:50;9.90;;;5.00;;
809;SDS011;387;48.772;9.186;2023-10-13T07:49:27;9.13;;;5.10;;
809;SDS011;387;48.772;9.186;2023-10-13T07:51:56;12.20;;;5.10;;
809;SDS011;387;48.772;9.186;2023-10-13T07:54:44;12.33;;;4.97;;
809;SDS011;387;48.772;9.186;2023-10-13T07:57:14;10.43;;;4.43;;
809;SDS011;387;48.772;9.186;2023-10-13T07:59:40;10.37;;;4.60;;
809;SDS011;387;48.772;9.186;2023-10-13T08:02:16;12.70;;;4.90;;
809;SDS011;387;48.772;9.186;2023-10-13T08:05:01;12.43;;;4.60;;
809;SDS011;387;48.772;9.186;2023-10-13T08:07:29;12.43;;;4.80;;
809;SDS011;387;48.772;9.186;2023-10-13T08:09:55;7.23;;;4.13;;
809;SDS011;387;48.772;9.186;2023-10-13T08:12:24;13.87;;;4.80;;
809;SDS011;387;48.772;9.186;2023-10-13T08:14:50;10.43;;;4.47;;
809;SDS011;387;48.772;9.186;2023-10-13T08:17:34;14.23;;;5.13;;
809;SDS011;387;48.772;9.186;2023-10-13T08:20:00;10.03;;;4.27;;
809;SDS011;387;48.772;9.186;2023-10-13T08:22:36;7.00;;;4.30;;
809;SDS011;387;48.772;9.186;2023-10-13T08:25:03;13.53;;;4.17;;
809;SDS011;387;48.772;9.186;2023-10-13T08:28:07;8.53;;;4.80;;
809;SDS011;387;48.772;9.186;2023-10-13T08:30:51;12.80;;;4.70;;
809;SDS011;387;48.772;9.186;2023-10-13T08:33:21;19.03;;;4.90;;
809;SDS011;387;48.772;9.186;2023-10-13T08:35:51;13.63;;;4.30;;
809;SDS011;387;48.772;9.186;2023-10-13T08:38:21;14.00;;;4.60;;
809;SDS011;387;48.772;9.186;2023-10-13T08:40:54;10.10;;;4.33;;
809;SDS011;387;48.772;9.186;2023-10-13T08:43:53;11.53;;;4.33;;
809;SDS011;387;48.772;9.186;2023-10-13T08:46:30;12.97;;;4.00;;
809;SDS011;387;48.772;9.186;2023-10-13T08:49:03;6.90;;;4.00;;
809;SDS011;387;48.772;9.186;2023-10-13T08:51:54;12.30;;;4.63;;
809;SDS011;387;48.772;9.186;2023-10-13T08:54:32;9.47;;;3.77;;
809;SDS011;387;48.772;9.186;2023-10-13T08:57:03;8.43;;;4.17;;
809;SDS011;387;48.772;9.186;2023-10-13T08:59:45;11.03;;;4.70;;
809;SDS011;387;48.772;9.186;2023-10-13T09:02:18;7.60;;;3.87;;
809;SDS011;387;48.772;9.186;2023-10-13T09:04:47;10.10;;;3.90;;
809;SDS011;387;48.772;9.186;2023-10-13T09:07:24;8.33;;;3.77;;
809;SDS011;387;48.772;9.186;2023-10-13T09:09:50;14.63;;;4.03;;
809;SDS011;387;48.772;9.186;2023-10-13T09:14:51;9.30;;;3.80;;
809;SDS011;387;48.772;9.186;2023-10-13T09:17:27;9.40;;;4.53;;
809;SDS011;387;48.772;9.186;2023-10-13T09:20:07;11.80;;;3.83;;
809;SDS011;387;48.772;9.186;2023-10-13T09:22:49;7.80;;;3.63;;
809;SDS011;387;48.772;9.186;2023-10-13T09:25:33;12.00;;;3.97;;
809;SDS011;387;48.772;9.186;2023-10-13T09:28:12;12.63;;;3.63;;
809;SDS011;387;48.772;9.186;2023-10-13T09:30:44;7.60;;;3.87;;
809;SDS011;387;48.772;9.186;2023-10-13T09:33:18;11.30;;;4.10;;
809;SDS011;387;48.772;9.186;2023-10-13T09:36:04;9.97;;;3.70;;
809;SDS011;387;48.772;9.186;2023-10-13T09:38:35;9.60;;;3.90;;
809;SDS011;387;48.772;9.186;2023-10-13T09:41:04;8.50;;;4.20;;
809;SDS011;387;48.772;9.186;2023-10-13T09:43:48;8.83;;;3.57;;
809;SDS011;387;48.772;9.186;2023-10-13T09:46:18;10.40;;;4.60;;
809;SDS011;387;48.772;9.186;2023-10-13T09:48:48;11.20;;;3.67;;
809;SDS011;387;48.772;9.186;2023-10-13T09:51:29;9.00;;;4.10;;
809;SDS011;387;48.772;9.186;2023-10-13T09:54:04;7.27;;;3.33;;
809;SDS011;387;48.772;9.186;2023-10-13T09:56:38;13.03;;;4.23;;
809;SDS011;387;48.772;9.186;2023-10-13T09:59:24;7.40;;;3.53;;
809;SDS011;387;48.772;9.186;2023-10-13T10:01:59;13.40;;;3.43;;
809;SDS011;387;48.772;9.186;2023-10-13T10:04:33;12.07;;;4.27;;
809;SDS011;387;48.772;9.186;2023-10-13T10:07:23;9.70;;;3.87;;
809;SDS011;387;48.772;9.186;2023-10-13T10:09:57;9.30;;;3.90;;
809;SDS011;387;48.772;9.186;2023-10-13T10:17:59;8.90;;;3.50;;
809;SDS011;387;48.772;9.186;2023-10-13T10:23:04;7.43;;;4.00;;
809;SDS011;387;48.772;9.186;2023-10-13T10:25:31;12.80;;;5.07;;
809;SDS011;387;48.772;9.186;2023-10-13T10:28:01;8.43;;;3.90;;
809;SDS011;387;48.772;9.186;2023-10-13T10:30:31;8.37;;;4.37;;
809;SDS011;387;48.772;9.186;2023-10-13T10:33:00;8.43;;;3.33;;
809;SDS011;387;48.772;9.186;2023-10-13T10:35:37;14.80;;;4.03;;
809;SDS011;387;48.772;9.186;2023-10-13T10:38:11;7.53;;;3.60;;
809;SDS011;387;48.772;9.186;2023-10-13T10:43:22;13.53;;;4.17;;
809;SDS011;387;48.772;9.186;2023-10-13T10:45:51;11.10;;;3.90;;
809;SDS011;387;48.772;9.186;2023-10-13T10:48:16;13.30;;;4.17;;
809;SDS011;387;48.772;9.186;2023-10-13T10:50:52;7.33;;;4.03;;
809;SDS011;387;48.772;9.186;2023-10-13T10:53:19;11.77;;;3.73;;
809;SDS011;387;48.772;9.186;2023-10-13T10:55:47;11.37;;;4.27;;
809;SDS011;387;48.772;9.186;2023-10-13T10:58:13;14.27;;;4.70;;
809;SDS011;387;48.772;9.186;2023-10-13T11:01:04;6.83;;;3.70;;
809;SDS011;387;48.772;9.186;2023-10-13T11:03:36;11.23;;;4.30;;
809;SDS011;387;48.772;9.186;2023-10-13T11:06:07;12.80;;;4.20;;
809;SDS011;387;48.772;9.186;2023-10-13T11:08:42;11.33;;;4.23;;
809;SDS011;387;48.772;9.186;2023-10-13T11:11:09;14.87;;;5.17;;
809;SDS011;387;48.772;9.186;2023-10-13T11:13:43;11.00;;;4.03;;
809;SDS011;387;48.772;9.186;2023-10-13T11:16:44;5.50;;;3.40;;
809;SDS011;387;48.772;9.186;2023-10-13T11:19:15;12.47;;;4.40;;
809;SDS011;387;48.772;9.186;2023-10-13T11:21:51;10.77;;;3.90;;
809;SDS011;387;48.772;9.186;2023-10-13T11:24:18;7.87;;;3.77;;
809;SDS011;387;48.772;9.186;2023-10-13T11:26:46;10.07;;;4.47;;
809;SDS011;387;48.772;9.186;2023-10-13T11:29:17;11.13;;;5.73;;
809;SDS011;387;48.772;9.186;2023-10-13T11:31:47;11.27;;;3.90;;
809;SDS011;387;48.772;9.186;2023-10-13T11:34:23;7.67;;;3.80;;
809;SDS011;387;48.772;9.186;2023-10-13T11:36:50;13.23;;;4.20;;
809;SDS011;387;48.772;9.186;2023-10-13T11:39:16;12.97;;;4.30;;
809;SDS011;387;48.772;9.186;2023-10-13T11:41:50;14.30;;;4.20;;
809;SDS011;387;48.772;9.186;2023-10-13T11:44:19;14.63;;;4.53;;
809;SDS011;387;48.772;9.186;2023-10-13T11:46:45;19.03;;;4.13;;
809;SDS011;387;48.772;9.186;2023-10-13T11:49:14;11.20;;;4.50;;
809;SDS011;387;48.772;9.186;2023-10-13T11:51:47;7.30;;;3.43;;
809;SDS011;387;48.772;9.186;2023-10-13T11:54:20;6.57;;;4.00;;
809;SDS011;387;48.772;9.186;2023-10-13T11:56:48;9.90;;;4.63;;
809;SDS011;387;48.772;9.186;2023-10-13T11:59:14;6.90;;;3.57;;
809;SDS011;387;48.772;9.186;2023-10-13T12:01:44;15.63;;;4.37;;
809;SDS011;387;48.772;9.186;2023-10-13T12:04:28;10.20;;;3.70;;
809;SDS011;387;48.772;9.186;2023-10-13T12:07:14;8.23;;;3.67;;
809;SDS011;387;48.772;9.186;2023-10-13T12:09:43;12.03;;;4.30;;
809;SDS011;387;48.772;9.186;2023-10-13T12:12:24;13.60;;;4.20;;
809;SDS011;387;48.772;9.186;2023-10-13T12:14:51;8.40;;;4.40;;
809;SDS011;387;48.772;9.186;2023-10-13T12:17:18;13.33;;;3.80;;
809;SDS011;387;48.772;9.186;2023-10-13T12:19:51;9.67;;;4.10;;
809;SDS011;387;48.772;9.186;2023-10-13T12:22:17;8.70;;;3.90;;
809;SDS011;387;48.772;9.186;2023-10-13T12:24:51;9.23;;;3.70;;
809;SDS011;387;48.772;9.186;2023-10-13T12:27:20;11.10;;;3.80;;
809;SDS011;387;48.772;9.186;2023-10-13T12:29:52;9.07;;;4.70;;
809;SDS011;387;48.772;9.186;2023-10-13T12:32:18;13.80;;;4.17;;
809;SDS011;387;48.772;9.186;2023-10-13T12:34:51;8.80;;;4.27;;
809;SDS011;387;48.772;9.186;2023-10-13T12:37:41;7.70;;;3.93;;
809;SDS011;387;48.772;9.186;2023-10-13T12:40:12;8.13;;;3.70;;
809;SDS011;387;48.772;9.186;2023-10-13T12:42:57;7.87;;;4.30;;
809;SDS011;387;48.772;9.186;2023-10-13T12:45:50;8.60;;;4.03;;
809;SDS011;387;48.772;9.186;2023-10-13T12:48:35;7.70;;;3.97;;
809;SDS011;387;48.772;9.186;2023-10-13T12:51:20;12.73;;;3.90;;
809;SDS011;387;48.772;9.186;2023-10-13T12:54:00;9.63;;;4.13;;
809;SDS011;387;48.772;9.186;2023-10-13T12:56:30;7.80;;;3.87;;
809;SDS011;387;48.772;9.186;2023-10-13T12:58:56;11.23;;;4.10;;
809;SDS011;387;48.772;9.186;2023-10-13T13:01:22;8.63;;;4.60;;
809;SDS011;387;48.772;9.186;2023-10-13T13:03:50;12.53;;;3.60;;
809;SDS011;387;48.772;9.186;2023-10-13T13:06:21;7.43;;;3.70;;
809;SDS011;387;48.772;9.186;2023-10-13T13:08:51;8.50;;;4.10;;
809;SDS011;387;48.772;9.186;2023-10-13T13:11:26;6.17;;;3.90;;
809;SDS011;387;48.772;9.186;2023-10-13T13:13:57;12.00;;;3.90;;
809;SDS011;387;48.772;9.186;2023-10-13T13:16:22;6.77;;;3.60;;
809;SDS011;387;48.772;9.186;2023-10-13T13:18:55;14.93;;;4.00;;
809;SDS011;387;48.772;9.186;2023-10-13T13:21:20;8.50;;;4.07;;
809;SDS011;387;48.772;9.186;2023-10-13T13:23:52;6.20;;;3.43;;
809;SDS011;387;48.772;9.186;2023-10-13T13:26:21;8.70;;;4.77;;
809;SDS011;387;48.772;9.186;2023-10-13T13:28:47;9.67;;;3.83;;
809;SDS011;387;48.772;9.186;2023-10-13T13:31:20;7.70;;;3.90;;
809;SDS011;387;48.772;9.186;2023-10-13T13:33:52;8.07;;;3.90;;
809;SDS011;387;48.772;9.186;2023-10-13T13:36:18;10.27;;;3.73;;
809;SDS011;387;48.772;9.186;2023-10-13T13:38:44;10.23;;;4.40;;
809;SDS011;387;48.772;9.186;2023-10-13T13:41:19;9.50;;;4.10;;
809;SDS011;387;48.772;9.186;2023-10-13T13:43:46;9.40;;;4.03;;
809;SDS011;387;48.772;9.186;2023-10-13T13:46:16;8.70;;;3.60;;
809;SDS011;387;48.772;9.186;2023-10-13T13:48:43;7.80;;;3.50;;
809;SDS011;387;48.772;9.186;2023-10-13T13:51:08;13.13;;;3.90;;
809;SDS011;387;48.772;9.186;2023-10-13T13:53:43;5.83;;;3.30;;
809;SDS011;387;48.772;9.186;2023-10-13T13:56:15;9.40;;;3.40;;
809;SDS011;387;48.772;9.186;2023-10-13T13:58:44;8.93;;;3.20;;
809;SDS011;387;48.772;9.186;2023-10-13T14:01:11;10.13;;;4.40;;
809;SDS011;387;48.772;9.186;2023-10-13T14:03:38;7.57;;;3.33;;
809;SDS011;387;48.772;9.186;2023-10-13T14:06:10;7.70;;;3.73;;
809;SDS011;387;48.772;9.186;2023-10-13T14:08:57;12.10;;;4.10;;
809;SDS011;387;48.772;9.186;2023-10-13T14:11:44;7.90;;;3.70;;
809;SDS011;387;48.772;9.186;2023-10-13T14:14:28;7.80;;;3.87;;
809;SDS011;387;48.772;9.186;2023-10-13T14:16:54;6.60;;;3.90;;
809;SDS011;387;48.772;9.186;2023-10-13T14:19:27;8.73;;;3.37;;
809;SDS011;387;48.772;9.186;2023-10-13T14:21:56;6.37;;;3.67;;
809;SDS011;387;48.772;9.186;2023-10-13T14:24:23;6.40;;;3.50;;
809;SDS011;387;48.772;9.186;2023-10-13T14:26:58;7.80;;;3.50;;
809;SDS011;387;48.772;9.186;2023-10-13T14:29:33;8.63;;;4.00;;
809;SDS011;387;48.772;9.186;2023-10-13T14:31:59;7.20;;;3.67;;
809;SDS011;387;48.772;9.186;2023-10-13T14:34:25;11.83;;;4.00;;
809;SDS011;387;48.772;9.186;2023-10-13T14:36:51;10.17;;;3.87;;
809;SDS011;387;48.772;9.186;2023-10-13T14:39:19;8.27;;;3.80;;
809;SDS011;387;48.772;9.186;2023-10-13T14:41:46;13.67;;;3.40;;
809;SDS011;387;48.772;9.186;2023-10-13T14:44:13;6.17;;;3.23;;
809;SDS011;387;48.772;9.186;2023-10-13T14:46:39;6.50;;;3.40;;
809;SDS011;387;48.772;9.186;2023-10-13T14:49:05;6.87;;;3.40;;
809;SDS011;387;48.772;9.186;2023-10-13T14:51:31;7.10;;;3.20;;
809;SDS011;387;48.772;9.186;2023-10-13T14:53:57;10.03;;;3.70;;
809;SDS011;387;48.772;9.186;2023-10-13T14:56:25;11.90;;;3.90;;
809;SDS011;387;48.772;9.186;2023-10-13T14:58:53;11.10;;;3.43;;
809;SDS011;387;48.772;9.186;2023-10-13T15:01:19;7.10;;;3.30;;
809;SDS011;387;48.772;9.186;2023-10-13T15:03:47;6.43;;;3.57;;
809;SDS011;387;48.772;9.186;2023-10-13T15:06:23;5.50;;;2.83;;
809;SDS011;387;48.772;9.186;2023-10-13T15:08:51;10.77;;;3.50;;
809;SDS011;387;48.772;9.186;2023-10-13T15:11:19;6.13;;;3.20;;
809;SDS011;387;48.772;9.186;2023-10-13T15:13:46;6.70;;;2.97;;
809;SDS011;387;48.772;9.186;2023-10-13T15:18:42;5.23;;;3.47;;
809;SDS011;387;48.772;9.186;2023-10-13T15:21:09;7.30;;;3.43;;
809;SDS011;387;48.772;9.186;2023-10-13T15:23:35;7.20;;;3.33;;
809;SDS011;387;48.772;9.186;2023-10-13T15:26:07;6.37;;;3.00;;
809;SDS011;387;48.772;9.186;2023-10-13T15:28:39;4.50;;;2.80;;
809;SDS011;387;48.772;9.186;2023-10-13T15:31:17;6.07;;;3.03;;
809;SDS011;387;48.772;9.186;2023-10-13T15:34:02;9.40;;;3.70;;
809;SDS011;387;48.772;9.186;2023-10-13T15:36:39;7.67;;;3.90;;
809;SDS011;387;48.772;9.186;2023-10-13T15:39:05;9.00;;;3.27;;
809;SDS011;387;48.772;9.186;2023-10-13T15:41:33;7.50;;;2.90;;
809;SDS011;387;48.772;9.186;2023-10-13T15:43:59;7.57;;;3.20;;
809;SDS011;387;48.772;9.186;2023-10-13T15:46:24;9.67;;;3.00;;
809;SDS011;387;48.772;9.186;2023-10-13T15:48:51;9.90;;;3.87;;
809;SDS011;387;48.772;9.186;2023-10-13T15:51:17;5.73;;;2.83;;
809;SDS011;387;48.772;9.186;2023-10-13T15:53:44;8.00;;;3.20;;
809;SDS011;387;48.772;9.186;2023-10-13T15:56:12;6.57;;;3.23;;
809;SDS011;387;48.772;9.186;2023-10-13T15:58:44;7.13;;;3.50;;
809;SDS011;387;48.772;9.186;2023-10-13T16:01:14;4.23;;;2.53;;
809;SDS011;387;48.772;9.186;2023-10-13T16:03:40;4.10;;;2.30;;
809;SDS011;387;48.772;9.186;2023-10-13T16:06:09;6.57;;;2.83;;
809;SDS011;387;48.772;9.186;2023-10-13T16:08:36;6.47;;;2.90;;
809;SDS011;387;48.772;9.186;2023-10-13T16:11:03;6.47;;;3.10;;
809;SDS011;387;48.772;9.186;2023-10-13T16:13:32;4.70;;;2.97;;
809;SDS011;387;48.772;9.186;2023-10-13T16:16:01;5.50;;;3.17;;
809;SDS011;387;48.772;9.186;2023-10-13T16:18:28;4.20;;;3.07;;
809;SDS011;387;48.772;9.186;2023-10-13T16:20:57;8.60;;;3.40;;
809;SDS011;387;48.772;9.186;2023-10-13T16:23:29;6.57;;;3.10;;
809;SDS011;387;48.772;9.186;2023-10-13T16:25:56;5.67;;;3.03;;
809;SDS011;387;48.772;9.186;2023-10-13T16:28:27;11.03;;;3.20;;
809;SDS011;387;48.772;9.186;2023-10-13T16:33:25;10.10;;;3.00;;
809;SDS011;387;48.772;9.186;2023-10-13T16:35:53;4.63;;;2.47;;
809;SDS011;387;48.772;9.186;2023-10-13T16:38:20;7.80;;;2.87;;
809;SDS011;387;48.772;9.186;2023-10-13T16:40:50;7.00;;;3.03;;
809;SDS011;387;48.772;9.186;2023-10-13T16:43:17;7.80;;;3.20;;
809;SDS011;387;48.772;9.186;2023-10-13T16:45:43;9.70;;;3.47;;
809;SDS011;387;48.772;9.186;2023-10-13T16:48:10;5.97;;;3.33;;